sensor_id;sensor_type;location;lat;lon;timestamp;P1;durP1;ratioP1;P2;durP2;ratioP2
45366;SDS011;31100;55.848;37.636;2023-04-25T00:00:40;19.02;;;8.27;;
45366;SDS011;31100;55.848;37.636;2023-04-25T00:03:05;15.57;;;8.30;;
45366;SDS011;31100;55.848;37.636;2023-04-25T00:05:31;17.27;;;8.43;;
45366;SDS011;31100;55.848;37.636;2023-04-25T00:07:57;21.58;;;8.65;;
45366;SDS011;31100;55.848;37.636;2023-04-25T00:10:23;16.00;;;7.90;;
45366;SDS011;31100;55.848;37.636;2023-04-25T00:12:48;17.83;;;8.77;;
45366;SDS011;31100;55.848;37.636;2023-04-25T00:15:14;21.48;;;8.70;;
45366;SDS011;31100;55.848;37.636;2023-04-25T00:17:40;17.67;;;8.52;;
45366;SDS011;31100;55.848;37.636;2023-04-25T00:20:05;21.25;;;8.23;;
45366;SDS011;31100;55.848;37.636;2023-04-25T00:22:34;17.48;;;8.60;;
45366;SDS011;31100;55.848;37.636;2023-04-25T00:24:59;20.80;;;8.15;;
45366;SDS011;31100;55.848;37.636;2023-04-25T00:27:25;17.98;;;7.68;;
45366;SDS011;31100;55.848;37.636;2023-04-25T00:29:51;18.30;;;8.43;;
45366;SDS011;31100;55.848;37.636;2023-04-25T00:32:17;14.98;;;8.15;;
45366;SDS011;31100;55.848;37.636;2023-04-25T00:34:42;16.80;;;8.15;;
45366;SDS011;31100;55.848;37.636;2023-04-25T00:37:08;17.88;;;8.23;;
45366;SDS011;31100;55.848;37.636;2023-04-25T00:39:33;18.13;;;8.13;;
45366;SDS011;31100;55.848;37.636;2023-04-25T00:41:59;17.15;;;7.70;;
45366;SDS011;31100;55.848;37.636;2023-04-25T00:44:25;17.63;;;7.80;;
45366;SDS011;31100;55.848;37.636;2023-04-25T00:46:52;18.65;;;8.73;;
45366;SDS011;31100;55.848;37.636;2023-04-25T00:49:17;14.05;;;7.55;;
45366;SDS011;31100;55.848;37.636;2023-04-25T00:51:43;14.60;;;7.35;;
45366;SDS011;31100;55.848;37.636;2023-04-25T00:54:11;15.63;;;7.85;;
45366;SDS011;31100;55.848;37.636;2023-04-25T00:56:37;13.75;;;7.35;;
45366;SDS011;31100;55.848;37.636;2023-04-25T00:59:03;13.23;;;6.88;;
45366;SDS011;31100;55.848;37.636;2023-04-25T01:01:28;18.42;;;7.85;;
45366;SDS011;31100;55.848;37.636;2023-04-25T01:03:54;15.80;;;8.18;;
45366;SDS011;31100;55.848;37.636;2023-04-25T01:06:21;15.77;;;7.75;;
45366;SDS011;31100;55.848;37.636;2023-04-25T01:08:47;15.63;;;8.10;;
45366;SDS011;31100;55.848;37.636;2023-04-25T01:11:13;18.52;;;8.02;;
45366;SDS011;31100;55.848;37.636;2023-04-25T01:13:39;13.45;;;7.65;;
45366;SDS011;31100;55.848;37.636;2023-04-25T01:16:05;13.60;;;8.18;;
45366;SDS011;31100;55.848;37.636;2023-04-25T01:18:31;18.40;;;8.18;;
45366;SDS011;31100;55.848;37.636;2023-04-25T01:20:56;13.82;;;7.43;;
45366;SDS011;31100;55.848;37.636;2023-04-25T01:23:27;15.98;;;8.38;;
45366;SDS011;31100;55.848;37.636;2023-04-25T01:25:54;14.07;;;9.05;;
45366;SDS011;31100;55.848;37.636;2023-04-25T01:28:20;13.65;;;8.15;;
45366;SDS011;31100;55.848;37.636;2023-04-25T01:30:45;17.55;;;8.57;;
45366;SDS011;31100;55.848;37.636;2023-04-25T01:33:11;13.52;;;7.82;;
45366;SDS011;31100;55.848;37.636;2023-04-25T01:35:39;16.20;;;8.50;;
45366;SDS011;31100;55.848;37.636;2023-04-25T01:38:05;18.27;;;8.63;;
45366;SDS011;31100;55.848;37.636;2023-04-25T01:40:30;14.63;;;8.02;;
45366;SDS011;31100;55.848;37.636;2023-04-25T01:42:56;17.75;;;8.30;;
45366;SDS011;31100;55.848;37.636;2023-04-25T01:45:22;17.10;;;8.68;;
45366;SDS011;31100;55.848;37.636;2023-04-25T01:47:47;15.98;;;8.60;;
45366;SDS011;31100;55.848;37.636;2023-04-25T01:50:15;20.23;;;8.60;;
45366;SDS011;31100;55.848;37.636;2023-04-25T01:52:41;19.48;;;8.23;;
45366;SDS011;31100;55.848;37.636;2023-04-25T01:55:07;15.10;;;7.68;;
45366;SDS011;31100;55.848;37.636;2023-04-25T01:57:33;15.15;;;8.00;;
45366;SDS011;31100;55.848;37.636;2023-04-25T01:59:59;17.63;;;8.82;;
45366;SDS011;31100;55.848;37.636;2023-04-25T02:02:26;15.32;;;8.50;;
45366;SDS011;31100;55.848;37.636;2023-04-25T02:04:52;16.33;;;9.25;;
45366;SDS011;31100;55.848;37.636;2023-04-25T02:07:17;21.17;;;9.80;;
45366;SDS011;31100;55.848;37.636;2023-04-25T02:09:43;15.52;;;9.20;;
45366;SDS011;31100;55.848;37.636;2023-04-25T02:12:09;20.00;;;8.32;;
45366;SDS011;31100;55.848;37.636;2023-04-25T02:14:35;16.20;;;7.70;;
45366;SDS011;31100;55.848;37.636;2023-04-25T02:17:01;18.88;;;8.75;;
45366;SDS011;31100;55.848;37.636;2023-04-25T02:19:27;11.23;;;7.75;;
45366;SDS011;31100;55.848;37.636;2023-04-25T02:21:52;16.50;;;8.68;;
45366;SDS011;31100;55.848;37.636;2023-04-25T02:24:18;16.70;;;7.55;;
45366;SDS011;31100;55.848;37.636;2023-04-25T02:26:43;18.25;;;8.27;;
45366;SDS011;31100;55.848;37.636;2023-04-25T02:29:09;20.08;;;8.52;;
45366;SDS011;31100;55.848;37.636;2023-04-25T02:31:35;15.45;;;8.32;;
45366;SDS011;31100;55.848;37.636;2023-04-25T02:34:01;17.40;;;8.30;;
45366;SDS011;31100;55.848;37.636;2023-04-25T02:36:26;14.55;;;7.60;;
45366;SDS011;31100;55.848;37.636;2023-04-25T02:38:52;19.10;;;9.48;;
45366;SDS011;31100;55.848;37.636;2023-04-25T02:41:18;14.02;;;8.00;;
45366;SDS011;31100;55.848;37.636;2023-04-25T02:43:43;13.77;;;7.55;;
45366;SDS011;31100;55.848;37.636;2023-04-25T02:46:09;18.83;;;8.23;;
45366;SDS011;31100;55.848;37.636;2023-04-25T02:48:34;15.07;;;8.20;;
45366;SDS011;31100;55.848;37.636;2023-04-25T02:51:03;20.73;;;8.85;;
45366;SDS011;31100;55.848;37.636;2023-04-25T02:53:28;19.15;;;9.00;;
45366;SDS011;31100;55.848;37.636;2023-04-25T02:55:54;21.58;;;8.70;;
45366;SDS011;31100;55.848;37.636;2023-04-25T02:58:19;24.02;;;9.30;;
45366;SDS011;31100;55.848;37.636;2023-04-25T03:00:45;23.30;;;9.90;;
45366;SDS011;31100;55.848;37.636;2023-04-25T03:03:10;27.85;;;8.27;;
45366;SDS011;31100;55.848;37.636;2023-04-25T03:05:36;18.63;;;8.02;;
45366;SDS011;31100;55.848;37.636;2023-04-25T03:08:01;17.27;;;8.45;;
45366;SDS011;31100;55.848;37.636;2023-04-25T03:10:28;20.48;;;9.52;;
45366;SDS011;31100;55.848;37.636;2023-04-25T03:12:53;20.00;;;8.68;;
45366;SDS011;31100;55.848;37.636;2023-04-25T03:15:19;17.85;;;8.35;;
45366;SDS011;31100;55.848;37.636;2023-04-25T03:17:44;22.63;;;9.20;;
45366;SDS011;31100;55.848;37.636;2023-04-25T03:20:10;17.88;;;8.70;;
45366;SDS011;31100;55.848;37.636;2023-04-25T03:22:36;22.15;;;8.77;;
45366;SDS011;31100;55.848;37.636;2023-04-25T03:25:02;17.63;;;8.45;;
45366;SDS011;31100;55.848;37.636;2023-04-25T03:27:28;26.95;;;9.88;;
45366;SDS011;31100;55.848;37.636;2023-04-25T03:29:54;25.40;;;9.45;;
45366;SDS011;31100;55.848;37.636;2023-04-25T03:32:19;18.33;;;9.25;;
45366;SDS011;31100;55.848;37.636;2023-04-25T03:34:45;17.58;;;9.27;;
45366;SDS011;31100;55.848;37.636;2023-04-25T03:37:10;24.13;;;9.07;;
45366;SDS011;31100;55.848;37.636;2023-04-25T03:39:36;20.75;;;9.15;;
45366;SDS011;31100;55.848;37.636;2023-04-25T03:42:02;17.55;;;9.25;;
45366;SDS011;31100;55.848;37.636;2023-04-25T03:44:28;21.27;;;8.82;;
45366;SDS011;31100;55.848;37.636;2023-04-25T03:46:53;16.13;;;9.25;;
45366;SDS011;31100;55.848;37.636;2023-04-25T03:49:19;20.33;;;8.95;;
45366;SDS011;31100;55.848;37.636;2023-04-25T03:51:44;15.10;;;7.90;;
45366;SDS011;31100;55.848;37.636;2023-04-25T03:54:10;16.30;;;8.57;;
45366;SDS011;31100;55.848;37.636;2023-04-25T03:56:35;18.38;;;8.93;;
45366;SDS011;31100;55.848;37.636;2023-04-25T03:59:01;17.67;;;8.80;;
45366;SDS011;31100;55.848;37.636;2023-04-25T04:01:27;18.02;;;9.70;;
45366;SDS011;31100;55.848;37.636;2023-04-25T04:03:52;23.55;;;9.95;;
45366;SDS011;31100;55.848;37.636;2023-04-25T04:06:18;15.05;;;9.27;;
45366;SDS011;31100;55.848;37.636;2023-04-25T04:08:45;18.25;;;9.73;;
45366;SDS011;31100;55.848;37.636;2023-04-25T04:11:14;20.88;;;9.15;;
45366;SDS011;31100;55.848;37.636;2023-04-25T04:13:39;25.02;;;9.98;;
45366;SDS011;31100;55.848;37.636;2023-04-25T04:16:05;17.88;;;8.60;;
45366;SDS011;31100;55.848;37.636;2023-04-25T04:18:30;20.55;;;9.30;;
45366;SDS011;31100;55.848;37.636;2023-04-25T04:20:56;17.50;;;9.07;;
45366;SDS011;31100;55.848;37.636;2023-04-25T04:23:23;19.75;;;10.15;;
45366;SDS011;31100;55.848;37.636;2023-04-25T04:25:49;20.27;;;9.82;;
45366;SDS011;31100;55.848;37.636;2023-04-25T04:28:14;22.10;;;10.10;;
45366;SDS011;31100;55.848;37.636;2023-04-25T04:30:41;19.77;;;10.80;;
45366;SDS011;31100;55.848;37.636;2023-04-25T04:33:07;18.45;;;10.38;;
45366;SDS011;31100;55.848;37.636;2023-04-25T04:35:34;16.20;;;10.38;;
45366;SDS011;31100;55.848;37.636;2023-04-25T04:37:59;17.13;;;10.38;;
45366;SDS011;31100;55.848;37.636;2023-04-25T04:40:25;17.52;;;10.50;;
45366;SDS011;31100;55.848;37.636;2023-04-25T04:42:51;20.50;;;10.73;;
45366;SDS011;31100;55.848;37.636;2023-04-25T04:45:18;19.30;;;10.52;;
45366;SDS011;31100;55.848;37.636;2023-04-25T04:47:43;19.45;;;11.05;;
45366;SDS011;31100;55.848;37.636;2023-04-25T04:50:09;20.20;;;9.95;;
45366;SDS011;31100;55.848;37.636;2023-04-25T04:52:36;17.25;;;9.40;;
45366;SDS011;31100;55.848;37.636;2023-04-25T04:55:02;19.33;;;9.30;;
45366;SDS011;31100;55.848;37.636;2023-04-25T04:57:28;16.80;;;10.00;;
45366;SDS011;31100;55.848;37.636;2023-04-25T04:59:54;20.27;;;10.25;;
45366;SDS011;31100;55.848;37.636;2023-04-25T05:02:20;20.90;;;9.43;;
45366;SDS011;31100;55.848;37.636;2023-04-25T05:04:45;17.80;;;10.27;;
45366;SDS011;31100;55.848;37.636;2023-04-25T05:07:12;18.40;;;10.50;;
45366;SDS011;31100;55.848;37.636;2023-04-25T05:09:37;19.83;;;10.88;;
45366;SDS011;31100;55.848;37.636;2023-04-25T05:12:03;19.52;;;10.10;;
45366;SDS011;31100;55.848;37.636;2023-04-25T05:14:29;18.83;;;10.23;;
45366;SDS011;31100;55.848;37.636;2023-04-25T05:16:54;17.33;;;9.02;;
45366;SDS011;31100;55.848;37.636;2023-04-25T05:19:21;17.70;;;9.43;;
45366;SDS011;31100;55.848;37.636;2023-04-25T05:21:47;18.10;;;9.07;;
45366;SDS011;31100;55.848;37.636;2023-04-25T05:24:12;13.35;;;8.45;;
45366;SDS011;31100;55.848;37.636;2023-04-25T05:26:38;14.73;;;8.68;;
45366;SDS011;31100;55.848;37.636;2023-04-25T05:29:03;13.90;;;8.40;;
45366;SDS011;31100;55.848;37.636;2023-04-25T05:31:30;16.98;;;8.65;;
45366;SDS011;31100;55.848;37.636;2023-04-25T05:33:55;16.05;;;8.55;;
45366;SDS011;31100;55.848;37.636;2023-04-25T05:36:21;14.57;;;8.23;;
45366;SDS011;31100;55.848;37.636;2023-04-25T05:38:47;15.23;;;7.50;;
45366;SDS011;31100;55.848;37.636;2023-04-25T05:41:12;18.25;;;8.25;;
45366;SDS011;31100;55.848;37.636;2023-04-25T05:43:38;14.65;;;7.55;;
45366;SDS011;31100;55.848;37.636;2023-04-25T05:46:03;12.75;;;7.50;;
45366;SDS011;31100;55.848;37.636;2023-04-25T05:48:29;19.85;;;9.52;;
45366;SDS011;31100;55.848;37.636;2023-04-25T05:50:55;15.70;;;7.65;;
45366;SDS011;31100;55.848;37.636;2023-04-25T05:53:20;16.20;;;8.27;;
45366;SDS011;31100;55.848;37.636;2023-04-25T05:55:47;12.38;;;7.50;;
45366;SDS011;31100;55.848;37.636;2023-04-25T05:58:12;11.68;;;6.90;;
45366;SDS011;31100;55.848;37.636;2023-04-25T06:00:38;13.27;;;7.00;;
45366;SDS011;31100;55.848;37.636;2023-04-25T06:03:03;12.10;;;7.28;;
45366;SDS011;31100;55.848;37.636;2023-04-25T06:05:29;14.52;;;7.38;;
45366;SDS011;31100;55.848;37.636;2023-04-25T06:07:54;15.15;;;8.30;;
45366;SDS011;31100;55.848;37.636;2023-04-25T06:10:20;13.35;;;7.28;;
45366;SDS011;31100;55.848;37.636;2023-04-25T06:12:46;11.02;;;7.03;;
45366;SDS011;31100;55.848;37.636;2023-04-25T06:15:11;14.25;;;7.60;;
45366;SDS011;31100;55.848;37.636;2023-04-25T06:17:37;11.88;;;6.65;;
45366;SDS011;31100;55.848;37.636;2023-04-25T06:20:02;14.40;;;7.07;;
45366;SDS011;31100;55.848;37.636;2023-04-25T06:22:29;12.02;;;6.45;;
45366;SDS011;31100;55.848;37.636;2023-04-25T06:24:54;13.57;;;6.47;;
45366;SDS011;31100;55.848;37.636;2023-04-25T06:27:22;12.23;;;6.22;;
45366;SDS011;31100;55.848;37.636;2023-04-25T06:29:47;11.02;;;6.50;;
45366;SDS011;31100;55.848;37.636;2023-04-25T06:32:13;15.57;;;6.07;;
45366;SDS011;31100;55.848;37.636;2023-04-25T06:34:39;12.55;;;6.25;;
45366;SDS011;31100;55.848;37.636;2023-04-25T06:37:04;15.27;;;6.10;;
45366;SDS011;31100;55.848;37.636;2023-04-25T06:39:30;12.65;;;6.15;;
45366;SDS011;31100;55.848;37.636;2023-04-25T06:41:55;11.43;;;6.38;;
45366;SDS011;31100;55.848;37.636;2023-04-25T06:44:21;13.02;;;6.10;;
45366;SDS011;31100;55.848;37.636;2023-04-25T06:46:49;13.55;;;6.60;;
45366;SDS011;31100;55.848;37.636;2023-04-25T06:49:14;13.75;;;6.50;;
45366;SDS011;31100;55.848;37.636;2023-04-25T06:51:40;13.75;;;6.05;;
45366;SDS011;31100;55.848;37.636;2023-04-25T06:54:06;14.85;;;6.22;;
45366;SDS011;31100;55.848;37.636;2023-04-25T06:56:31;12.88;;;5.85;;
45366;SDS011;31100;55.848;37.636;2023-04-25T06:58:57;9.25;;;5.75;;
45366;SDS011;31100;55.848;37.636;2023-04-25T07:01:22;12.18;;;5.75;;
45366;SDS011;31100;55.848;37.636;2023-04-25T07:03:48;11.00;;;6.25;;
45366;SDS011;31100;55.848;37.636;2023-04-25T07:06:13;15.05;;;6.55;;
45366;SDS011;31100;55.848;37.636;2023-04-25T07:08:39;13.80;;;6.80;;
45366;SDS011;31100;55.848;37.636;2023-04-25T07:11:04;13.48;;;6.90;;
45366;SDS011;31100;55.848;37.636;2023-04-25T07:13:30;16.30;;;6.50;;
45366;SDS011;31100;55.848;37.636;2023-04-25T07:15:55;11.85;;;5.63;;
45366;SDS011;31100;55.848;37.636;2023-04-25T07:18:21;9.35;;;5.65;;
45366;SDS011;31100;55.848;37.636;2023-04-25T07:20:47;12.75;;;5.40;;
45366;SDS011;31100;55.848;37.636;2023-04-25T07:23:12;10.65;;;5.57;;
45366;SDS011;31100;55.848;37.636;2023-04-25T07:25:38;13.80;;;5.60;;
45366;SDS011;31100;55.848;37.636;2023-04-25T07:28:03;12.93;;;5.13;;
45366;SDS011;31100;55.848;37.636;2023-04-25T07:30:29;8.68;;;5.18;;
45366;SDS011;31100;55.848;37.636;2023-04-25T07:32:55;15.10;;;5.57;;
45366;SDS011;31100;55.848;37.636;2023-04-25T07:35:21;13.15;;;5.75;;
45366;SDS011;31100;55.848;37.636;2023-04-25T07:37:46;14.40;;;4.95;;
45366;SDS011;31100;55.848;37.636;2023-04-25T07:40:12;11.40;;;5.13;;
45366;SDS011;31100;55.848;37.636;2023-04-25T07:42:37;10.68;;;4.47;;
45366;SDS011;31100;55.848;37.636;2023-04-25T07:45:03;8.98;;;4.90;;
45366;SDS011;31100;55.848;37.636;2023-04-25T07:47:29;13.93;;;5.13;;
45366;SDS011;31100;55.848;37.636;2023-04-25T07:49:54;9.52;;;4.65;;
45366;SDS011;31100;55.848;37.636;2023-04-25T07:52:21;10.80;;;6.30;;
45366;SDS011;31100;55.848;37.636;2023-04-25T07:54:46;13.10;;;5.18;;
45366;SDS011;31100;55.848;37.636;2023-04-25T07:57:12;8.15;;;5.28;;
45366;SDS011;31100;55.848;37.636;2023-04-25T07:59:39;11.55;;;5.10;;
45366;SDS011;31100;55.848;37.636;2023-04-25T08:02:05;7.57;;;4.55;;
45366;SDS011;31100;55.848;37.636;2023-04-25T08:04:30;10.52;;;5.03;;
45366;SDS011;31100;55.848;37.636;2023-04-25T08:06:56;14.02;;;6.75;;
45366;SDS011;31100;55.848;37.636;2023-04-25T08:09:21;9.35;;;5.18;;
45366;SDS011;31100;55.848;37.636;2023-04-25T08:11:47;13.15;;;4.43;;
45366;SDS011;31100;55.848;37.636;2023-04-25T08:14:13;11.70;;;5.43;;
45366;SDS011;31100;55.848;37.636;2023-04-25T08:16:39;10.80;;;4.60;;
45366;SDS011;31100;55.848;37.636;2023-04-25T08:19:04;12.00;;;4.45;;
45366;SDS011;31100;55.848;37.636;2023-04-25T08:21:30;9.13;;;4.47;;
45366;SDS011;31100;55.848;37.636;2023-04-25T08:23:56;12.60;;;4.40;;
45366;SDS011;31100;55.848;37.636;2023-04-25T08:26:23;11.27;;;4.57;;
45366;SDS011;31100;55.848;37.636;2023-04-25T08:28:49;10.63;;;4.80;;
45366;SDS011;31100;55.848;37.636;2023-04-25T08:31:15;11.05;;;4.57;;
45366;SDS011;31100;55.848;37.636;2023-04-25T08:33:41;10.48;;;4.25;;
45366;SDS011;31100;55.848;37.636;2023-04-25T08:36:06;9.68;;;4.70;;
45366;SDS011;31100;55.848;37.636;2023-04-25T08:38:32;10.55;;;4.70;;
45366;SDS011;31100;55.848;37.636;2023-04-25T08:40:57;19.30;;;5.10;;
45366;SDS011;31100;55.848;37.636;2023-04-25T08:43:25;8.55;;;4.60;;
45366;SDS011;31100;55.848;37.636;2023-04-25T08:45:51;9.73;;;4.75;;
45366;SDS011;31100;55.848;37.636;2023-04-25T08:48:21;9.38;;;4.60;;
45366;SDS011;31100;55.848;37.636;2023-04-25T08:50:50;8.88;;;4.43;;
45366;SDS011;31100;55.848;37.636;2023-04-25T08:53:21;13.48;;;5.22;;
45366;SDS011;31100;55.848;37.636;2023-04-25T08:55:48;6.95;;;4.85;;
45366;SDS011;31100;55.848;37.636;2023-04-25T08:58:14;10.55;;;4.78;;
45366;SDS011;31100;55.848;37.636;2023-04-25T09:00:39;10.07;;;4.88;;
45366;SDS011;31100;55.848;37.636;2023-04-25T09:03:05;11.02;;;4.65;;
45366;SDS011;31100;55.848;37.636;2023-04-25T09:05:33;7.97;;;4.45;;
45366;SDS011;31100;55.848;37.636;2023-04-25T09:08:00;7.00;;;4.40;;
45366;SDS011;31100;55.848;37.636;2023-04-25T09:10:26;14.02;;;4.40;;
45366;SDS011;31100;55.848;37.636;2023-04-25T09:13:05;10.95;;;4.28;;
45366;SDS011;31100;55.848;37.636;2023-04-25T09:18:14;8.30;;;4.28;;
45366;SDS011;31100;55.848;37.636;2023-04-25T09:20:57;8.13;;;4.20;;
45366;SDS011;31100;55.848;37.636;2023-04-25T09:23:30;8.75;;;4.28;;
45366;SDS011;31100;55.848;37.636;2023-04-25T09:25:56;10.13;;;4.63;;
45366;SDS011;31100;55.848;37.636;2023-04-25T09:28:25;8.57;;;5.07;;
45366;SDS011;31100;55.848;37.636;2023-04-25T09:30:54;9.68;;;4.30;;
45366;SDS011;31100;55.848;37.636;2023-04-25T09:33:28;7.68;;;4.25;;
45366;SDS011;31100;55.848;37.636;2023-04-25T09:36:01;8.05;;;4.63;;
45366;SDS011;31100;55.848;37.636;2023-04-25T09:38:40;8.85;;;4.22;;
45366;SDS011;31100;55.848;37.636;2023-04-25T09:41:07;6.72;;;3.97;;
45366;SDS011;31100;55.848;37.636;2023-04-25T09:43:33;7.47;;;4.20;;
45366;SDS011;31100;55.848;37.636;2023-04-25T09:45:58;8.82;;;4.13;;
45366;SDS011;31100;55.848;37.636;2023-04-25T09:48:25;8.05;;;4.70;;
45366;SDS011;31100;55.848;37.636;2023-04-25T09:51:08;8.85;;;4.80;;
45366;SDS011;31100;55.848;37.636;2023-04-25T09:53:35;10.63;;;4.55;;
45366;SDS011;31100;55.848;37.636;2023-04-25T09:56:05;10.55;;;6.07;;
45366;SDS011;31100;55.848;37.636;2023-04-25T09:58:32;9.85;;;5.60;;
45366;SDS011;31100;55.848;37.636;2023-04-25T10:01:03;8.35;;;5.38;;
45366;SDS011;31100;55.848;37.636;2023-04-25T10:03:31;9.48;;;5.20;;
45366;SDS011;31100;55.848;37.636;2023-04-25T10:06:01;9.77;;;5.20;;
45366;SDS011;31100;55.848;37.636;2023-04-25T10:08:31;9.57;;;5.07;;
45366;SDS011;31100;55.848;37.636;2023-04-25T10:11:04;11.18;;;4.60;;
45366;SDS011;31100;55.848;37.636;2023-04-25T10:13:31;8.10;;;3.83;;
45366;SDS011;31100;55.848;37.636;2023-04-25T10:16:02;8.98;;;3.60;;
45366;SDS011;31100;55.848;37.636;2023-04-25T10:18:29;7.53;;;3.50;;
45366;SDS011;31100;55.848;37.636;2023-04-25T10:20:55;6.28;;;3.35;;
45366;SDS011;31100;55.848;37.636;2023-04-25T10:23:22;7.18;;;3.30;;
45366;SDS011;31100;55.848;37.636;2023-04-25T10:25:49;7.72;;;3.72;;
45366;SDS011;31100;55.848;37.636;2023-04-25T10:28:15;7.50;;;3.42;;
45366;SDS011;31100;55.848;37.636;2023-04-25T10:31:02;10.32;;;3.38;;
45366;SDS011;31100;55.848;37.636;2023-04-25T10:33:33;6.18;;;3.05;;
45366;SDS011;31100;55.848;37.636;2023-04-25T10:36:13;7.38;;;3.35;;
45366;SDS011;31100;55.848;37.636;2023-04-25T10:38:48;7.40;;;4.03;;
45366;SDS011;31100;55.848;37.636;2023-04-25T10:41:17;7.30;;;3.78;;
45366;SDS011;31100;55.848;37.636;2023-04-25T10:43:46;8.65;;;3.55;;
45366;SDS011;31100;55.848;37.636;2023-04-25T10:46:21;7.35;;;3.58;;
45366;SDS011;31100;55.848;37.636;2023-04-25T10:49:00;5.53;;;3.30;;
45366;SDS011;31100;55.848;37.636;2023-04-25T10:51:28;6.22;;;3.30;;
45366;SDS011;31100;55.848;37.636;2023-04-25T10:56:21;7.35;;;3.83;;
45366;SDS011;31100;55.848;37.636;2023-04-25T10:58:48;8.60;;;3.78;;
45366;SDS011;31100;55.848;37.636;2023-04-25T11:01:14;6.68;;;3.50;;
45366;SDS011;31100;55.848;37.636;2023-04-25T11:03:41;8.70;;;3.80;;
45366;SDS011;31100;55.848;37.636;2023-04-25T11:06:23;6.85;;;3.72;;
45366;SDS011;31100;55.848;37.636;2023-04-25T11:08:50;6.97;;;3.50;;
45366;SDS011;31100;55.848;37.636;2023-04-25T11:11:19;9.20;;;4.10;;
45366;SDS011;31100;55.848;37.636;2023-04-25T11:13:51;7.57;;;4.05;;
45366;SDS011;31100;55.848;37.636;2023-04-25T11:16:16;8.93;;;3.50;;
45366;SDS011;31100;55.848;37.636;2023-04-25T11:18:43;7.57;;;3.50;;
45366;SDS011;31100;55.848;37.636;2023-04-25T11:21:09;10.43;;;3.90;;
45366;SDS011;31100;55.848;37.636;2023-04-25T11:23:35;6.15;;;3.70;;
45366;SDS011;31100;55.848;37.636;2023-04-25T11:26:01;5.82;;;3.60;;
45366;SDS011;31100;55.848;37.636;2023-04-25T11:28:28;5.68;;;3.53;;
45366;SDS011;31100;55.848;37.636;2023-04-25T11:30:53;8.00;;;3.17;;
45366;SDS011;31100;55.848;37.636;2023-04-25T11:33:23;7.13;;;3.75;;
45366;SDS011;31100;55.848;37.636;2023-04-25T11:35:48;7.30;;;3.22;;
45366;SDS011;31100;55.848;37.636;2023-04-25T11:38:14;10.35;;;3.75;;
45366;SDS011;31100;55.848;37.636;2023-04-25T11:40:40;7.15;;;3.40;;
45366;SDS011;31100;55.848;37.636;2023-04-25T11:43:05;4.45;;;3.00;;
45366;SDS011;31100;55.848;37.636;2023-04-25T11:45:32;6.18;;;2.97;;
45366;SDS011;31100;55.848;37.636;2023-04-25T11:47:57;5.22;;;2.65;;
45366;SDS011;31100;55.848;37.636;2023-04-25T11:50:23;14.02;;;3.30;;
45366;SDS011;31100;55.848;37.636;2023-04-25T11:52:48;10.10;;;3.08;;
45366;SDS011;31100;55.848;37.636;2023-04-25T11:57:44;6.93;;;3.67;;
45366;SDS011;31100;55.848;37.636;2023-04-25T12:02:41;7.57;;;2.65;;
45366;SDS011;31100;55.848;37.636;2023-04-25T12:05:07;5.53;;;3.20;;
45366;SDS011;31100;55.848;37.636;2023-04-25T12:07:34;4.20;;;2.72;;
45366;SDS011;31100;55.848;37.636;2023-04-25T12:10:03;5.70;;;3.00;;
45366;SDS011;31100;55.848;37.636;2023-04-25T12:15:07;6.25;;;2.80;;
45366;SDS011;31100;55.848;37.636;2023-04-25T12:17:49;5.28;;;2.92;;
45366;SDS011;31100;55.848;37.636;2023-04-25T12:20:17;9.82;;;4.45;;
45366;SDS011;31100;55.848;37.636;2023-04-25T12:22:45;8.63;;;3.65;;
45366;SDS011;31100;55.848;37.636;2023-04-25T12:25:12;6.85;;;3.17;;
45366;SDS011;31100;55.848;37.636;2023-04-25T12:27:38;7.28;;;3.03;;
45366;SDS011;31100;55.848;37.636;2023-04-25T12:30:09;7.95;;;3.00;;
45366;SDS011;31100;55.848;37.636;2023-04-25T12:32:36;6.25;;;3.28;;
45366;SDS011;31100;55.848;37.636;2023-04-25T12:35:03;11.10;;;3.15;;
45366;SDS011;31100;55.848;37.636;2023-04-25T12:37:29;6.55;;;2.78;;
45366;SDS011;31100;55.848;37.636;2023-04-25T12:39:55;6.95;;;2.75;;
45366;SDS011;31100;55.848;37.636;2023-04-25T12:42:21;7.95;;;3.05;;
45366;SDS011;31100;55.848;37.636;2023-04-25T12:44:46;7.53;;;3.20;;
45366;SDS011;31100;55.848;37.636;2023-04-25T12:47:12;5.88;;;3.05;;
45366;SDS011;31100;55.848;37.636;2023-04-25T12:49:37;6.93;;;3.90;;
45366;SDS011;31100;55.848;37.636;2023-04-25T12:52:03;8.13;;;3.20;;
45366;SDS011;31100;55.848;37.636;2023-04-25T12:54:28;9.05;;;3.33;;
45366;SDS011;31100;55.848;37.636;2023-04-25T12:56:54;7.18;;;3.22;;
45366;SDS011;31100;55.848;37.636;2023-04-25T12:59:20;7.10;;;3.30;;
45366;SDS011;31100;55.848;37.636;2023-04-25T13:01:46;5.95;;;3.67;;
45366;SDS011;31100;55.848;37.636;2023-04-25T13:04:11;9.05;;;4.22;;
45366;SDS011;31100;55.848;37.636;2023-04-25T13:06:37;5.93;;;3.70;;
45366;SDS011;31100;55.848;37.636;2023-04-25T13:09:03;6.68;;;3.40;;
45366;SDS011;31100;55.848;37.636;2023-04-25T13:11:28;6.13;;;3.00;;
45366;SDS011;31100;55.848;37.636;2023-04-25T13:13:54;5.88;;;3.20;;
45366;SDS011;31100;55.848;37.636;2023-04-25T13:16:20;7.22;;;3.58;;
45366;SDS011;31100;55.848;37.636;2023-04-25T13:18:46;6.70;;;2.97;;
45366;SDS011;31100;55.848;37.636;2023-04-25T13:21:11;5.72;;;3.20;;
45366;SDS011;31100;55.848;37.636;2023-04-25T13:23:37;5.88;;;3.22;;
45366;SDS011;31100;55.848;37.636;2023-04-25T13:26:03;10.10;;;3.35;;
45366;SDS011;31100;55.848;37.636;2023-04-25T13:28:28;7.93;;;3.50;;
45366;SDS011;31100;55.848;37.636;2023-04-25T13:30:54;8.15;;;3.58;;
45366;SDS011;31100;55.848;37.636;2023-04-25T13:33:20;7.57;;;3.60;;
45366;SDS011;31100;55.848;37.636;2023-04-25T13:35:46;8.43;;;3.70;;
45366;SDS011;31100;55.848;37.636;2023-04-25T13:38:19;7.55;;;3.72;;
45366;SDS011;31100;55.848;37.636;2023-04-25T13:40:45;7.82;;;3.80;;
45366;SDS011;31100;55.848;37.636;2023-04-25T13:43:11;8.55;;;3.40;;
45366;SDS011;31100;55.848;37.636;2023-04-25T13:45:36;5.55;;;3.67;;
45366;SDS011;31100;55.848;37.636;2023-04-25T13:48:02;10.40;;;4.28;;
45366;SDS011;31100;55.848;37.636;2023-04-25T13:50:27;8.23;;;3.80;;
45366;SDS011;31100;55.848;37.636;2023-04-25T13:52:53;7.55;;;3.50;;
45366;SDS011;31100;55.848;37.636;2023-04-25T13:55:18;4.55;;;3.00;;
45366;SDS011;31100;55.848;37.636;2023-04-25T13:57:44;7.78;;;3.60;;
45366;SDS011;31100;55.848;37.636;2023-04-25T14:00:10;5.57;;;3.30;;
45366;SDS011;31100;55.848;37.636;2023-04-25T14:02:36;6.80;;;4.22;;
45366;SDS011;31100;55.848;37.636;2023-04-25T14:05:05;7.50;;;3.88;;
45366;SDS011;31100;55.848;37.636;2023-04-25T14:07:32;5.93;;;3.38;;
45366;SDS011;31100;55.848;37.636;2023-04-25T14:09:59;10.68;;;3.78;;
45366;SDS011;31100;55.848;37.636;2023-04-25T14:12:25;5.88;;;3.70;;
45366;SDS011;31100;55.848;37.636;2023-04-25T14:14:51;9.90;;;4.68;;
45366;SDS011;31100;55.848;37.636;2023-04-25T14:17:17;7.80;;;4.38;;
45366;SDS011;31100;55.848;37.636;2023-04-25T14:19:43;7.90;;;3.90;;
45366;SDS011;31100;55.848;37.636;2023-04-25T14:22:10;5.88;;;3.60;;
45366;SDS011;31100;55.848;37.636;2023-04-25T14:24:36;4.95;;;3.60;;
45366;SDS011;31100;55.848;37.636;2023-04-25T14:27:02;6.30;;;3.80;;
45366;SDS011;31100;55.848;37.636;2023-04-25T14:29:27;5.95;;;3.70;;
45366;SDS011;31100;55.848;37.636;2023-04-25T14:31:53;7.50;;;4.15;;
45366;SDS011;31100;55.848;37.636;2023-04-25T14:34:19;7.57;;;4.18;;